sensor_id;sensor_type;location;lat;lon;timestamp;P1;durP1;ratioP1;P2;durP2;ratioP2
37453;SDS011;23315;52.078;4.756;2023-09-07T00:01:07;8.50;;;6.57;;
37453;SDS011;23315;52.078;4.756;2023-09-07T00:03:33;7.93;;;6.90;;
37453;SDS011;23315;52.078;4.756;2023-09-07T00:06:01;9.57;;;7.82;;
37453;SDS011;23315;52.078;4.756;2023-09-07T00:08:27;9.23;;;7.32;;
37453;SDS011;23315;52.078;4.756;2023-09-07T00:10:52;8.13;;;6.80;;
37453;SDS011;23315;52.078;4.756;2023-09-07T00:13:18;9.38;;;7.25;;
37453;SDS011;23315;52.078;4.756;2023-09-07T00:15:43;9.98;;;6.97;;
37453;SDS011;23315;52.078;4.756;2023-09-07T00:18:08;9.10;;;7.75;;
37453;SDS011;23315;52.078;4.756;2023-09-07T00:20:34;10.15;;;7.30;;
37453;SDS011;23315;52.078;4.756;2023-09-07T00:23:00;7.55;;;6.38;;
37453;SDS011;23315;52.078;4.756;2023-09-07T00:25:26;8.75;;;7.32;;
37453;SDS011;23315;52.078;4.756;2023-09-07T00:27:51;9.73;;;7.68;;
37453;SDS011;23315;52.078;4.756;2023-09-07T00:30:17;8.35;;;7.10;;
37453;SDS011;23315;52.078;4.756;2023-09-07T00:32:42;9.43;;;7.97;;
37453;SDS011;23315;52.078;4.756;2023-09-07T00:35:08;12.52;;;9.85;;
37453;SDS011;23315;52.078;4.756;2023-09-07T00:37:33;10.10;;;7.88;;
37453;SDS011;23315;52.078;4.756;2023-09-07T00:39:59;10.05;;;8.07;;
37453;SDS011;23315;52.078;4.756;2023-09-07T00:42:24;10.63;;;7.93;;
37453;SDS011;23315;52.078;4.756;2023-09-07T00:44:50;10.10;;;7.78;;
37453;SDS011;23315;52.078;4.756;2023-09-07T00:47:16;11.98;;;9.68;;
37453;SDS011;23315;52.078;4.756;2023-09-07T00:49:41;10.23;;;8.50;;
37453;SDS011;23315;52.078;4.756;2023-09-07T00:52:07;11.13;;;8.00;;
37453;SDS011;23315;52.078;4.756;2023-09-07T00:54:34;12.30;;;9.05;;
37453;SDS011;23315;52.078;4.756;2023-09-07T00:57:03;10.98;;;9.32;;
37453;SDS011;23315;52.078;4.756;2023-09-07T00:59:29;10.52;;;7.93;;
37453;SDS011;23315;52.078;4.756;2023-09-07T01:01:57;10.10;;;7.93;;
37453;SDS011;23315;52.078;4.756;2023-09-07T01:04:23;10.45;;;8.00;;
37453;SDS011;23315;52.078;4.756;2023-09-07T01:09:56;9.95;;;7.68;;
37453;SDS011;23315;52.078;4.756;2023-09-07T01:12:23;10.68;;;8.05;;
37453;SDS011;23315;52.078;4.756;2023-09-07T01:14:48;10.55;;;8.65;;
37453;SDS011;23315;52.078;4.756;2023-09-07T01:17:14;9.68;;;7.80;;
37453;SDS011;23315;52.078;4.756;2023-09-07T01:19:39;10.18;;;8.95;;
37453;SDS011;23315;52.078;4.756;2023-09-07T01:22:08;10.95;;;9.10;;
37453;SDS011;23315;52.078;4.756;2023-09-07T01:24:34;9.80;;;8.07;;
37453;SDS011;23315;52.078;4.756;2023-09-07T01:27:03;11.60;;;8.32;;
37453;SDS011;23315;52.078;4.756;2023-09-07T01:29:29;9.63;;;8.60;;
37453;SDS011;23315;52.078;4.756;2023-09-07T01:31:56;11.07;;;9.07;;
37453;SDS011;23315;52.078;4.756;2023-09-07T01:34:22;10.18;;;7.90;;
37453;SDS011;23315;52.078;4.756;2023-09-07T01:36:48;10.93;;;8.90;;
37453;SDS011;23315;52.078;4.756;2023-09-07T01:39:13;10.05;;;8.65;;
37453;SDS011;23315;52.078;4.756;2023-09-07T01:41:39;9.60;;;8.52;;
37453;SDS011;23315;52.078;4.756;2023-09-07T01:44:04;10.30;;;8.52;;
37453;SDS011;23315;52.078;4.756;2023-09-07T01:46:30;11.95;;;9.80;;
37453;SDS011;23315;52.078;4.756;2023-09-07T01:48:55;10.77;;;9.43;;
37453;SDS011;23315;52.078;4.756;2023-09-07T01:51:20;11.43;;;9.50;;
37453;SDS011;23315;52.078;4.756;2023-09-07T01:53:49;11.55;;;9.35;;
37453;SDS011;23315;52.078;4.756;2023-09-07T01:56:16;11.60;;;10.05;;
37453;SDS011;23315;52.078;4.756;2023-09-07T01:58:41;12.57;;;11.25;;
37453;SDS011;23315;52.078;4.756;2023-09-07T02:01:07;16.45;;;13.13;;
37453;SDS011;23315;52.078;4.756;2023-09-07T02:03:34;14.43;;;12.13;;
37453;SDS011;23315;52.078;4.756;2023-09-07T02:06:00;15.68;;;12.88;;
37453;SDS011;23315;52.078;4.756;2023-09-07T02:08:25;14.63;;;12.45;;
37453;SDS011;23315;52.078;4.756;2023-09-07T02:10:50;15.73;;;11.65;;
37453;SDS011;23315;52.078;4.756;2023-09-07T02:13:16;13.38;;;10.45;;
37453;SDS011;23315;52.078;4.756;2023-09-07T02:15:41;12.38;;;10.93;;
37453;SDS011;23315;52.078;4.756;2023-09-07T02:18:07;14.55;;;11.55;;
37453;SDS011;23315;52.078;4.756;2023-09-07T02:20:32;12.10;;;10.73;;
37453;SDS011;23315;52.078;4.756;2023-09-07T02:22:58;11.98;;;10.40;;
37453;SDS011;23315;52.078;4.756;2023-09-07T02:25:23;13.93;;;10.15;;
37453;SDS011;23315;52.078;4.756;2023-09-07T02:27:49;16.42;;;12.15;;
37453;SDS011;23315;52.078;4.756;2023-09-07T02:30:14;14.80;;;12.00;;
37453;SDS011;23315;52.078;4.756;2023-09-07T02:32:41;10.98;;;9.43;;
37453;SDS011;23315;52.078;4.756;2023-09-07T02:35:07;13.18;;;9.70;;
37453;SDS011;23315;52.078;4.756;2023-09-07T02:37:34;14.50;;;11.25;;
37453;SDS011;23315;52.078;4.756;2023-09-07T02:40:00;11.82;;;9.75;;
37453;SDS011;23315;52.078;4.756;2023-09-07T02:42:26;11.38;;;10.02;;
37453;SDS011;23315;52.078;4.756;2023-09-07T02:44:51;10.60;;;9.00;;
37453;SDS011;23315;52.078;4.756;2023-09-07T02:47:17;12.18;;;9.05;;
37453;SDS011;23315;52.078;4.756;2023-09-07T02:49:42;11.45;;;9.95;;
37453;SDS011;23315;52.078;4.756;2023-09-07T02:52:07;12.55;;;9.77;;
37453;SDS011;23315;52.078;4.756;2023-09-07T02:54:35;13.52;;;11.02;;
37453;SDS011;23315;52.078;4.756;2023-09-07T02:57:01;11.63;;;9.75;;
37453;SDS011;23315;52.078;4.756;2023-09-07T02:59:26;12.90;;;9.93;;
37453;SDS011;23315;52.078;4.756;2023-09-07T03:01:52;11.63;;;9.45;;
37453;SDS011;23315;52.078;4.756;2023-09-07T03:04:17;11.05;;;7.55;;
37453;SDS011;23315;52.078;4.756;2023-09-07T03:06:42;10.52;;;9.10;;
37453;SDS011;23315;52.078;4.756;2023-09-07T03:09:08;11.23;;;8.57;;
37453;SDS011;23315;52.078;4.756;2023-09-07T03:11:34;11.15;;;8.40;;
37453;SDS011;23315;52.078;4.756;2023-09-07T03:14:00;9.52;;;8.30;;
37453;SDS011;23315;52.078;4.756;2023-09-07T03:16:25;9.40;;;8.27;;
37453;SDS011;23315;52.078;4.756;2023-09-07T03:18:51;16.77;;;11.65;;
37453;SDS011;23315;52.078;4.756;2023-09-07T03:21:16;9.48;;;8.15;;
37453;SDS011;23315;52.078;4.756;2023-09-07T03:23:42;9.80;;;8.23;;
37453;SDS011;23315;52.078;4.756;2023-09-07T03:26:10;11.20;;;9.57;;
37453;SDS011;23315;52.078;4.756;2023-09-07T03:28:36;11.45;;;10.20;;
37453;SDS011;23315;52.078;4.756;2023-09-07T03:31:04;11.43;;;10.23;;
37453;SDS011;23315;52.078;4.756;2023-09-07T03:33:29;11.57;;;9.00;;
37453;SDS011;23315;52.078;4.756;2023-09-07T03:35:55;12.65;;;8.85;;
37453;SDS011;23315;52.078;4.756;2023-09-07T03:38:23;11.80;;;9.60;;
37453;SDS011;23315;52.078;4.756;2023-09-07T03:40:49;9.68;;;8.52;;
37453;SDS011;23315;52.078;4.756;2023-09-07T03:43:14;16.90;;;13.07;;
37453;SDS011;23315;52.078;4.756;2023-09-07T03:45:39;15.63;;;12.25;;
37453;SDS011;23315;52.078;4.756;2023-09-07T03:48:05;14.93;;;11.40;;
37453;SDS011;23315;52.078;4.756;2023-09-07T03:50:34;14.15;;;10.73;;
37453;SDS011;23315;52.078;4.756;2023-09-07T03:53:00;10.30;;;9.15;;
37453;SDS011;23315;52.078;4.756;2023-09-07T03:55:26;13.50;;;10.07;;
37453;SDS011;23315;52.078;4.756;2023-09-07T03:57:51;14.10;;;11.02;;
37453;SDS011;23315;52.078;4.756;2023-09-07T04:00:16;15.30;;;11.80;;
37453;SDS011;23315;52.078;4.756;2023-09-07T04:02:42;14.57;;;11.25;;
37453;SDS011;23315;52.078;4.756;2023-09-07T04:05:08;17.33;;;12.25;;
37453;SDS011;23315;52.078;4.756;2023-09-07T04:07:35;19.77;;;12.13;;
37453;SDS011;23315;52.078;4.756;2023-09-07T04:10:01;14.38;;;10.80;;
37453;SDS011;23315;52.078;4.756;2023-09-07T04:12:26;14.55;;;12.50;;
37453;SDS011;23315;52.078;4.756;2023-09-07T04:14:54;11.60;;;10.20;;
37453;SDS011;23315;52.078;4.756;2023-09-07T04:17:20;14.65;;;12.20;;
37453;SDS011;23315;52.078;4.756;2023-09-07T04:19:45;16.40;;;11.30;;
37453;SDS011;23315;52.078;4.756;2023-09-07T04:22:11;13.40;;;11.65;;
37453;SDS011;23315;52.078;4.756;2023-09-07T04:24:36;15.23;;;12.10;;
37453;SDS011;23315;52.078;4.756;2023-09-07T04:27:02;15.05;;;10.48;;
37453;SDS011;23315;52.078;4.756;2023-09-07T04:29:27;13.18;;;10.57;;
37453;SDS011;23315;52.078;4.756;2023-09-07T04:31:53;12.73;;;10.70;;
37453;SDS011;23315;52.078;4.756;2023-09-07T04:34:20;14.57;;;11.10;;
37453;SDS011;23315;52.078;4.756;2023-09-07T04:36:46;14.63;;;11.60;;
37453;SDS011;23315;52.078;4.756;2023-09-07T04:39:12;12.45;;;10.10;;
37453;SDS011;23315;52.078;4.756;2023-09-07T04:41:39;17.55;;;12.73;;
37453;SDS011;23315;52.078;4.756;2023-09-07T04:44:07;12.05;;;10.43;;
37453;SDS011;23315;52.078;4.756;2023-09-07T04:46:33;12.55;;;10.63;;
37453;SDS011;23315;52.078;4.756;2023-09-07T04:48:58;16.58;;;12.38;;
37453;SDS011;23315;52.078;4.756;2023-09-07T04:51:23;13.15;;;10.57;;
37453;SDS011;23315;52.078;4.756;2023-09-07T04:53:50;12.65;;;10.90;;
37453;SDS011;23315;52.078;4.756;2023-09-07T04:56:16;13.60;;;10.07;;
37453;SDS011;23315;52.078;4.756;2023-09-07T04:58:41;12.57;;;10.75;;
37453;SDS011;23315;52.078;4.756;2023-09-07T05:01:08;14.75;;;11.20;;
37453;SDS011;23315;52.078;4.756;2023-09-07T05:03:35;15.63;;;11.60;;
37453;SDS011;23315;52.078;4.756;2023-09-07T05:06:01;16.38;;;11.38;;
37453;SDS011;23315;52.078;4.756;2023-09-07T05:08:28;14.10;;;11.80;;
37453;SDS011;23315;52.078;4.756;2023-09-07T05:10:57;13.40;;;11.63;;
37453;SDS011;23315;52.078;4.756;2023-09-07T05:13:24;15.23;;;12.07;;
37453;SDS011;23315;52.078;4.756;2023-09-07T05:15:50;17.27;;;14.43;;
37453;SDS011;23315;52.078;4.756;2023-09-07T05:18:19;14.68;;;10.10;;
37453;SDS011;23315;52.078;4.756;2023-09-07T05:20:45;15.60;;;12.80;;
37453;SDS011;23315;52.078;4.756;2023-09-07T05:23:14;17.13;;;13.13;;
37453;SDS011;23315;52.078;4.756;2023-09-07T05:25:47;15.48;;;11.43;;
37453;SDS011;23315;52.078;4.756;2023-09-07T05:28:14;14.57;;;11.95;;
37453;SDS011;23315;52.078;4.756;2023-09-07T05:30:39;15.20;;;11.80;;
37453;SDS011;23315;52.078;4.756;2023-09-07T05:33:06;13.40;;;12.00;;
37453;SDS011;23315;52.078;4.756;2023-09-07T05:35:31;16.17;;;12.43;;
37453;SDS011;23315;52.078;4.756;2023-09-07T05:37:57;15.50;;;13.90;;
37453;SDS011;23315;52.078;4.756;2023-09-07T05:40:26;14.27;;;12.77;;
37453;SDS011;23315;52.078;4.756;2023-09-07T05:42:52;15.07;;;12.75;;
37453;SDS011;23315;52.078;4.756;2023-09-07T05:45:17;15.32;;;12.80;;
37453;SDS011;23315;52.078;4.756;2023-09-07T05:47:45;17.63;;;11.77;;
37453;SDS011;23315;52.078;4.756;2023-09-07T05:50:10;15.85;;;11.75;;
37453;SDS011;23315;52.078;4.756;2023-09-07T05:52:36;17.63;;;14.18;;
37453;SDS011;23315;52.078;4.756;2023-09-07T05:55:01;18.25;;;14.73;;
37453;SDS011;23315;52.078;4.756;2023-09-07T05:57:27;16.65;;;12.23;;
37453;SDS011;23315;52.078;4.756;2023-09-07T05:59:52;16.05;;;12.98;;
37453;SDS011;23315;52.078;4.756;2023-09-07T06:02:18;16.15;;;12.82;;
37453;SDS011;23315;52.078;4.756;2023-09-07T06:04:43;16.50;;;14.57;;
37453;SDS011;23315;52.078;4.756;2023-09-07T06:07:09;15.98;;;14.20;;
37453;SDS011;23315;52.078;4.756;2023-09-07T06:09:34;14.25;;;12.30;;
37453;SDS011;23315;52.078;4.756;2023-09-07T06:12:00;14.52;;;12.20;;
37453;SDS011;23315;52.078;4.756;2023-09-07T06:14:27;20.10;;;14.32;;
37453;SDS011;23315;52.078;4.756;2023-09-07T06:16:53;15.57;;;12.52;;
37453;SDS011;23315;52.078;4.756;2023-09-07T06:19:18;14.52;;;11.80;;
37453;SDS011;23315;52.078;4.756;2023-09-07T06:21:44;13.88;;;11.40;;
37453;SDS011;23315;52.078;4.756;2023-09-07T06:24:10;18.90;;;14.52;;
37453;SDS011;23315;52.078;4.756;2023-09-07T06:26:35;15.95;;;13.45;;
37453;SDS011;23315;52.078;4.756;2023-09-07T06:29:01;14.30;;;11.15;;
37453;SDS011;23315;52.078;4.756;2023-09-07T06:31:26;10.48;;;8.88;;
37453;SDS011;23315;52.078;4.756;2023-09-07T06:33:51;15.30;;;11.88;;
37453;SDS011;23315;52.078;4.756;2023-09-07T06:36:17;15.00;;;13.30;;
37453;SDS011;23315;52.078;4.756;2023-09-07T06:38:42;16.05;;;12.80;;
37453;SDS011;23315;52.078;4.756;2023-09-07T06:41:07;18.15;;;11.95;;
37453;SDS011;23315;52.078;4.756;2023-09-07T06:43:34;14.48;;;12.18;;
37453;SDS011;23315;52.078;4.756;2023-09-07T06:46:07;11.88;;;10.63;;
37453;SDS011;23315;52.078;4.756;2023-09-07T06:48:33;14.55;;;12.00;;
37453;SDS011;23315;52.078;4.756;2023-09-07T06:51:02;15.95;;;11.65;;
37453;SDS011;23315;52.078;4.756;2023-09-07T06:53:29;16.00;;;11.50;;
37453;SDS011;23315;52.078;4.756;2023-09-07T06:56:00;14.52;;;10.90;;
37453;SDS011;23315;52.078;4.756;2023-09-07T06:58:26;15.85;;;11.05;;
37453;SDS011;23315;52.078;4.756;2023-09-07T07:00:52;12.38;;;10.45;;
37453;SDS011;23315;52.078;4.756;2023-09-07T07:03:21;14.00;;;11.13;;
37453;SDS011;23315;52.078;4.756;2023-09-07T07:05:46;10.90;;;8.55;;
37453;SDS011;23315;52.078;4.756;2023-09-07T07:08:12;10.82;;;8.23;;
37453;SDS011;23315;52.078;4.756;2023-09-07T07:10:37;11.30;;;7.10;;
37453;SDS011;23315;52.078;4.756;2023-09-07T07:13:03;8.82;;;7.30;;
37453;SDS011;23315;52.078;4.756;2023-09-07T07:15:30;9.30;;;6.80;;
37453;SDS011;23315;52.078;4.756;2023-09-07T07:17:56;10.18;;;7.07;;
37453;SDS011;23315;52.078;4.756;2023-09-07T07:20:25;8.68;;;6.35;;
37453;SDS011;23315;52.078;4.756;2023-09-07T07:22:50;13.10;;;7.22;;
37453;SDS011;23315;52.078;4.756;2023-09-07T07:25:19;11.48;;;7.40;;
37453;SDS011;23315;52.078;4.756;2023-09-07T07:27:44;9.50;;;7.07;;
37453;SDS011;23315;52.078;4.756;2023-09-07T07:30:11;9.93;;;7.43;;
37453;SDS011;23315;52.078;4.756;2023-09-07T07:32:36;9.07;;;6.88;;
37453;SDS011;23315;52.078;4.756;2023-09-07T07:35:01;7.70;;;6.40;;
37453;SDS011;23315;52.078;4.756;2023-09-07T07:37:28;8.52;;;6.80;;
37453;SDS011;23315;52.078;4.756;2023-09-07T07:39:53;9.18;;;6.75;;
37453;SDS011;23315;52.078;4.756;2023-09-07T07:42:19;7.90;;;7.10;;
37453;SDS011;23315;52.078;4.756;2023-09-07T07:44:45;8.02;;;6.97;;
37453;SDS011;23315;52.078;4.756;2023-09-07T07:47:11;8.23;;;6.40;;
37453;SDS011;23315;52.078;4.756;2023-09-07T07:49:39;7.95;;;6.32;;
37453;SDS011;23315;52.078;4.756;2023-09-07T07:52:04;7.72;;;6.25;;
37453;SDS011;23315;52.078;4.756;2023-09-07T07:54:30;10.35;;;6.60;;
37453;SDS011;23315;52.078;4.756;2023-09-07T07:56:55;8.60;;;5.57;;
37453;SDS011;23315;52.078;4.756;2023-09-07T07:59:20;7.63;;;6.82;;
37453;SDS011;23315;52.078;4.756;2023-09-07T08:01:46;7.97;;;6.20;;
37453;SDS011;23315;52.078;4.756;2023-09-07T08:04:11;9.75;;;7.30;;
37453;SDS011;23315;52.078;4.756;2023-09-07T08:06:37;7.78;;;6.18;;
37453;SDS011;23315;52.078;4.756;2023-09-07T08:09:02;6.88;;;5.68;;
37453;SDS011;23315;52.078;4.756;2023-09-07T08:11:30;6.78;;;5.20;;
37453;SDS011;23315;52.078;4.756;2023-09-07T08:13:55;8.85;;;5.43;;
37453;SDS011;23315;52.078;4.756;2023-09-07T08:16:21;8.00;;;5.55;;
37453;SDS011;23315;52.078;4.756;2023-09-07T08:18:47;10.48;;;6.00;;
37453;SDS011;23315;52.078;4.756;2023-09-07T08:21:13;7.43;;;4.63;;
37453;SDS011;23315;52.078;4.756;2023-09-07T08:23:39;9.25;;;6.85;;
37453;SDS011;23315;52.078;4.756;2023-09-07T08:26:04;8.25;;;5.65;;
37453;SDS011;23315;52.078;4.756;2023-09-07T08:28:30;6.65;;;5.03;;
37453;SDS011;23315;52.078;4.756;2023-09-07T08:30:55;7.55;;;5.80;;
37453;SDS011;23315;52.078;4.756;2023-09-07T08:33:25;9.00;;;6.28;;
37453;SDS011;23315;52.078;4.756;2023-09-07T08:35:55;10.73;;;6.68;;
37453;SDS011;23315;52.078;4.756;2023-09-07T08:38:21;7.63;;;5.72;;
37453;SDS011;23315;52.078;4.756;2023-09-07T08:40:51;7.25;;;5.85;;
37453;SDS011;23315;52.078;4.756;2023-09-07T08:43:18;6.03;;;5.25;;
37453;SDS011;23315;52.078;4.756;2023-09-07T08:46:30;9.82;;;6.30;;
37453;SDS011;23315;52.078;4.756;2023-09-07T08:48:43;7.15;;;5.40;;
37453;SDS011;23315;52.078;4.756;2023-09-07T08:51:09;7.13;;;5.65;;
37453;SDS011;23315;52.078;4.756;2023-09-07T08:53:39;8.15;;;5.72;;
37453;SDS011;23315;52.078;4.756;2023-09-07T08:56:05;7.55;;;5.43;;
37453;SDS011;23315;52.078;4.756;2023-09-07T08:58:32;6.15;;;5.47;;
37453;SDS011;23315;52.078;4.756;2023-09-07T09:00:57;8.93;;;4.70;;
37453;SDS011;23315;52.078;4.756;2023-09-07T09:03:23;7.68;;;5.20;;
37453;SDS011;23315;52.078;4.756;2023-09-07T09:05:48;7.68;;;4.60;;
37453;SDS011;23315;52.078;4.756;2023-09-07T09:08:15;7.20;;;4.80;;
37453;SDS011;23315;52.078;4.756;2023-09-07T09:10:45;7.57;;;5.47;;
37453;SDS011;23315;52.078;4.756;2023-09-07T09:13:11;6.13;;;4.63;;
37453;SDS011;23315;52.078;4.756;2023-09-07T09:15:36;6.50;;;4.75;;
37453;SDS011;23315;52.078;4.756;2023-09-07T09:18:08;8.30;;;5.32;;
37453;SDS011;23315;52.078;4.756;2023-09-07T09:20:37;7.55;;;5.53;;
37453;SDS011;23315;52.078;4.756;2023-09-07T09:23:04;9.93;;;4.38;;
37453;SDS011;23315;52.078;4.756;2023-09-07T09:25:30;7.18;;;5.28;;
37453;SDS011;23315;52.078;4.756;2023-09-07T09:27:56;7.88;;;4.32;;
37453;SDS011;23315;52.078;4.756;2023-09-07T09:30:22;7.63;;;5.60;;
37453;SDS011;23315;52.078;4.756;2023-09-07T09:32:50;8.45;;;4.78;;
37453;SDS011;23315;52.078;4.756;2023-09-07T09:35:16;5.45;;;4.85;;
37453;SDS011;23315;52.078;4.756;2023-09-07T09:37:43;7.47;;;5.65;;
37453;SDS011;23315;52.078;4.756;2023-09-07T09:40:12;6.88;;;4.50;;
37453;SDS011;23315;52.078;4.756;2023-09-07T09:42:40;8.02;;;5.80;;
37453;SDS011;23315;52.078;4.756;2023-09-07T09:45:06;7.22;;;5.18;;
37453;SDS011;23315;52.078;4.756;2023-09-07T09:47:33;5.00;;;4.50;;
37453;SDS011;23315;52.078;4.756;2023-09-07T09:49:58;6.25;;;5.00;;
37453;SDS011;23315;52.078;4.756;2023-09-07T09:52:26;5.70;;;4.15;;
37453;SDS011;23315;52.078;4.756;2023-09-07T09:54:52;6.75;;;4.53;;
37453;SDS011;23315;52.078;4.756;2023-09-07T09:57:17;6.93;;;4.47;;
37453;SDS011;23315;52.078;4.756;2023-09-07T09:59:43;8.40;;;4.75;;
37453;SDS011;23315;52.078;4.756;2023-09-07T10:02:09;7.82;;;5.05;;
37453;SDS011;23315;52.078;4.756;2023-09-07T10:04:35;7.05;;;3.60;;
37453;SDS011;23315;52.078;4.756;2023-09-07T10:07:01;11.07;;;3.58;;
37453;SDS011;23315;52.078;4.756;2023-09-07T10:09:32;8.82;;;4.22;;
37453;SDS011;23315;52.078;4.756;2023-09-07T10:11:58;6.78;;;4.22;;
37453;SDS011;23315;52.078;4.756;2023-09-07T10:14:24;4.90;;;3.38;;
37453;SDS011;23315;52.078;4.756;2023-09-07T10:16:51;7.00;;;3.30;;
37453;SDS011;23315;52.078;4.756;2023-09-07T10:21:44;4.68;;;3.85;;
37453;SDS011;23315;52.078;4.756;2023-09-07T10:24:10;6.68;;;3.22;;
37453;SDS011;23315;52.078;4.756;2023-09-07T10:26:35;5.25;;;3.65;;
37453;SDS011;23315;52.078;4.756;2023-09-07T10:29:01;6.75;;;3.47;;
37453;SDS011;23315;52.078;4.756;2023-09-07T10:31:29;7.13;;;3.70;;
37453;SDS011;23315;52.078;4.756;2023-09-07T10:33:55;4.70;;;3.30;;
37453;SDS011;23315;52.078;4.756;2023-09-07T10:36:25;6.07;;;3.47;;
37453;SDS011;23315;52.078;4.756;2023-09-07T10:38:52;5.10;;;3.38;;
37453;SDS011;23315;52.078;4.756;2023-09-07T10:41:19;4.57;;;3.50;;
37453;SDS011;23315;52.078;4.756;2023-09-07T10:43:48;9.52;;;3.90;;
37453;SDS011;23315;52.078;4.756;2023-09-07T10:46:13;6.40;;;3.97;;
37453;SDS011;23315;52.078;4.756;2023-09-07T10:48:38;4.75;;;3.78;;
37453;SDS011;23315;52.078;4.756;2023-09-07T10:51:04;6.82;;;3.95;;
37453;SDS011;23315;52.078;4.756;2023-09-07T10:53:30;5.10;;;3.10;;
37453;SDS011;23315;52.078;4.756;2023-09-07T10:55:57;6.40;;;3.92;;
37453;SDS011;23315;52.078;4.756;2023-09-07T10:58:27;7.05;;;4.05;;
37453;SDS011;23315;52.078;4.756;2023-09-07T11:00:55;4.88;;;3.13;;
37453;SDS011;23315;52.078;4.756;2023-09-07T11:03:21;6.18;;;3.45;;
37453;SDS011;23315;52.078;4.756;2023-09-07T11:05:47;4.82;;;3.42;;
37453;SDS011;23315;52.078;4.756;2023-09-07T11:08:13;6.15;;;4.05;;
37453;SDS011;23315;52.078;4.756;2023-09-07T11:10:39;5.25;;;3.33;;
37453;SDS011;23315;52.078;4.756;2023-09-07T11:13:07;4.47;;;3.20;;
37453;SDS011;23315;52.078;4.756;2023-09-07T11:15:34;5.85;;;4.53;;
37453;SDS011;23315;52.078;4.756;2023-09-07T11:18:04;6.43;;;3.42;;
37453;SDS011;23315;52.078;4.756;2023-09-07T11:20:31;4.28;;;3.20;;
37453;SDS011;23315;52.078;4.756;2023-09-07T11:22:59;10.48;;;4.13;;
37453;SDS011;23315;52.078;4.756;2023-09-07T11:25:25;5.53;;;3.75;;
37453;SDS011;23315;52.078;4.756;2023-09-07T11:27:51;6.20;;;4.13;;
37453;SDS011;23315;52.078;4.756;2023-09-07T11:30:20;4.85;;;3.42;;
37453;SDS011;23315;52.078;4.756;2023-09-07T11:32:45;6.25;;;3.60;;
37453;SDS011;23315;52.078;4.756;2023-09-07T11:35:11;5.32;;;3.22;;
37453;SDS011;23315;52.078;4.756;2023-09-07T11:37:36;7.13;;;4.22;;
37453;SDS011;23315;52.078;4.756;2023-09-07T11:40:02;5.22;;;3.40;;
37453;SDS011;23315;52.078;4.756;2023-09-07T11:42:36;4.13;;;3.53;;
37453;SDS011;23315;52.078;4.756;2023-09-07T11:45:01;6.90;;;3.95;;
37453;SDS011;23315;52.078;4.756;2023-09-07T11:47:27;5.18;;;3.92;;
37453;SDS011;23315;52.078;4.756;2023-09-07T11:49:52;5.05;;;3.35;;
37453;SDS011;23315;52.078;4.756;2023-09-07T11:52:18;7.10;;;3.55;;
37453;SDS011;23315;52.078;4.756;2023-09-07T11:54:43;5.75;;;4.03;;
37453;SDS011;23315;52.078;4.756;2023-09-07T11:57:09;4.75;;;3.83;;
37453;SDS011;23315;52.078;4.756;2023-09-07T11:59:34;6.32;;;4.15;;
37453;SDS011;23315;52.078;4.756;2023-09-07T12:02:01;4.82;;;3.30;;
37453;SDS011;23315;52.078;4.756;2023-09-07T12:04:26;4.95;;;3.30;;
37453;SDS011;23315;52.078;4.756;2023-09-07T12:06:51;5.57;;;3.80;;
37453;SDS011;23315;52.078;4.756;2023-09-07T12:09:17;5.45;;;4.22;;
37453;SDS011;23315;52.078;4.756;2023-09-07T12:11:42;5.43;;;3.97;;
37453;SDS011;23315;52.078;4.756;2023-09-07T12:14:08;6.65;;;4.15;;
37453;SDS011;23315;52.078;4.756;2023-09-07T12:16:34;5.15;;;3.60;;
37453;SDS011;23315;52.078;4.756;2023-09-07T12:18:59;6.15;;;3.95;;
37453;SDS011;23315;52.078;4.756;2023-09-07T12:21:25;12.07;;;3.33;;
37453;SDS011;23315;52.078;4.756;2023-09-07T12:23:50;6.20;;;4.10;;
37453;SDS011;23315;52.078;4.756;2023-09-07T12:26:15;3.92;;;3.42;;
37453;SDS011;23315;52.078;4.756;2023-09-07T12:28:45;9.35;;;3.60;;
37453;SDS011;23315;52.078;4.756;2023-09-07T12:31:11;6.38;;;3.97;;
37453;SDS011;23315;52.078;4.756;2023-09-07T12:33:37;7.20;;;3.63;;
37453;SDS011;23315;52.078;4.756;2023-09-07T12:36:02;7.45;;;3.60;;
37453;SDS011;23315;52.078;4.756;2023-09-07T12:38:28;5.22;;;3.40;;
37453;SDS011;23315;52.078;4.756;2023-09-07T12:40:54;5.30;;;4.05;;
37453;SDS011;23315;52.078;4.756;2023-09-07T12:43:20;7.53;;;3.72;;
37453;SDS011;23315;52.078;4.756;2023-09-07T12:45:45;5.65;;;3.67;;
37453;SDS011;23315;52.078;4.756;2023-09-07T12:48:11;4.68;;;3.65;;
37453;SDS011;23315;52.078;4.756;2023-09-07T12:50:36;7.20;;;3.63;;
37453;SDS011;23315;52.078;4.756;2023-09-07T12:53:02;6.03;;;3.80;;
37453;SDS011;23315;52.078;4.756;2023-09-07T12:55:27;6.72;;;3.75;;
37453;SDS011;23315;52.078;4.756;2023-09-07T12:57:54;6.18;;;3.75;;
37453;SDS011;23315;52.078;4.756;2023-09-07T13:00:20;6.78;;;4.22;;
37453;SDS011;23315;52.078;4.756;2023-09-07T13:02:45;7.38;;;4.00;;
37453;SDS011;23315;52.078;4.756;2023-09-07T13:05:11;6.78;;;3.88;;
37453;SDS011;23315;52.078;4.756;2023-09-07T13:07:36;6.03;;;4.38;;
37453;SDS011;23315;52.078;4.756;2023-09-07T13:10:01;6.03;;;4.05;;
37453;SDS011;23315;52.078;4.756;2023-09-07T13:12:29;10.23;;;4.53;;
37453;SDS011;23315;52.078;4.756;2023-09-07T13:14:57;7.90;;;4.88;;
37453;SDS011;23315;52.078;4.756;2023-09-07T13:17:23;7.53;;;4.72;;
37453;SDS011;23315;52.078;4.756;2023-09-07T13:19:48;5.57;;;4.60;;
37453;SDS011;23315;52.078;4.756;2023-09-07T13:22:16;5.47;;;4.25;;
37453;SDS011;23315;52.078;4.756;2023-09-07T13:24:42;5.22;;;3.92;;
37453;SDS011;23315;52.078;4.756;2023-09-07T13:27:07;8.02;;;4.15;;
37453;SDS011;23315;52.078;4.756;2023-09-07T13:29:35;5.57;;;4.00;;
37453;SDS011;23315;52.078;4.756;2023-09-07T13:32:00;7.10;;;4.55;;
37453;SDS011;23315;52.078;4.756;2023-09-07T13:34:35;6.30;;;4.25;;
37453;SDS011;23315;52.078;4.756;2023-09-07T13:37:00;7.43;;;3.90;;
37453;SDS011;23315;52.078;4.756;2023-09-07T13:39:26;7.13;;;4.93;;
37453;SDS011;23315;52.078;4.756;2023-09-07T13:41:51;5.45;;;4.05;;
37453;SDS011;23315;52.078;4.756;2023-09-07T13:44:17;5.07;;;4.20;;
37453;SDS011;23315;52.078;4.756;2023-09-07T13:46:45;5.47;;;4.18;;
37453;SDS011;23315;52.078;4.756;2023-09-07T13:49:11;6.13;;;3.97;;
37453;SDS011;23315;52.078;4.756;2023-09-07T13:51:37;6.70;;;4.40;;
37453;SDS011;23315;52.078;4.756;2023-09-07T13:54:04;6.55;;;4.25;;
37453;SDS011;23315;52.078;4.756;2023-09-07T13:56:31;5.50;;;3.92;;
37453;SDS011;23315;52.078;4.756;2023-09-07T13:58:57;5.85;;;3.90;;
37453;SDS011;23315;52.078;4.756;2023-09-07T14:01:22;7.63;;;4.55;;
37453;SDS011;23315;52.078;4.756;2023-09-07T14:03:52;7.55;;;4.65;;
37453;SDS011;23315;52.078;4.756;2023-09-07T14:06:18;5.60;;;4.55;;
37453;SDS011;23315;52.078;4.756;2023-09-07T14:08:45;6.93;;;4.70;;
37453;SDS011;23315;52.078;4.756;2023-09-07T14:11:11;9.38;;;4.50;;
37453;SDS011;23315;52.078;4.756;2023-09-07T14:13:37;11.80;;;5.85;;
37453;SDS011;23315;52.078;4.756;2023-09-07T14:16:02;9.40;;;5.53;;
37453;SDS011;23315;52.078;4.756;2023-09-07T14:18:28;5.55;;;4.32;;
37453;SDS011;23315;52.078;4.756;2023-09-07T14:20:54;5.63;;;4.45;;
37453;SDS011;23315;52.078;4.756;2023-09-07T14:23:23;5.47;;;4.18;;
37453;SDS011;23315;52.078;4.756;2023-09-07T14:25:50;4.70;;;3.70;;
37453;SDS011;23315;52.078;4.756;2023-09-07T14:28:16;7.47;;;5.53;;
37453;SDS011;23315;52.078;4.756;2023-09-07T14:30:41;7.15;;;4.43;;
37453;SDS011;23315;52.078;4.756;2023-09-07T14:33:09;13.50;;;5.15;;
37453;SDS011;23315;52.078;4.756;2023-09-07T14:35:35;8.60;;;4.50;;
37453;SDS011;23315;52.078;4.756;2023-09-07T14:38:01;7.00;;;4.75;;